Time,TemperatureF,DewpointF,PressureIn,WindDirection,WindDirectionDegrees,WindSpeedMPH,WindSpeedGustMPH,Humidity,HourlyPrecipIn,Conditions,Clouds,dailyrainin,SoftwareType,DateUTC
2013-02-26 08:20:00,45.8,41.9,30.04,ESE,113,0.0,0.0,86,0.00,,,0.00,WUHU216HW,2013-02-26 07:20:00,
2013-02-26 08:24:00,46.2,42.2,30.05,SSE,158,0.0,0.0,86,0.00,,,0.00,WUHU216HW,2013-02-26 07:24:00,
2013-02-26 08:29:00,46.4,42.1,30.04,ESE,113,0.0,0.0,85,0.00,,,0.00,WUHU216HW,2013-02-26 07:29:00,
2013-02-26 08:34:00,46.5,42.0,30.05,East,90,1.1,1.1,84,0.00,,,0.00,WUHU216HW,2013-02-26 07:34:00,
2013-02-26 08:39:00,46.9,42.3,30.05,ESE,113,0.0,1.1,84,0.00,,,0.00,WUHU216HW,2013-02-26 07:39:00,
2013-02-26 08:44:00,47.3,42.3,30.05,SSE,158,0.0,0.8,83,0.00,,,0.00,WUHU216HW,2013-02-26 07:44:00,
2013-02-26 08:49:00,47.4,42.5,30.05,East,90,0.0,0.0,83,0.00,,,0.00,WUHU216HW,2013-02-26 07:49:00,
2013-02-26 08:54:00,48.0,43.0,30.05,SE,135,0.0,1.1,83,0.00,,,0.00,WUHU216HW,2013-02-26 07:54:00,
2013-02-26 09:00:00,48.2,42.9,30.06,ESE,113,0.0,1.1,82,0.00,,,0.00,WUHU216HW,2013-02-26 08:00:00,
2013-02-26 09:05:00,48.3,43.0,30.06,SSE,158,1.7,1.7,82,0.00,,,0.00,WUHU216HW,2013-02-26 08:05:00,
2013-02-26 09:10:00,48.9,43.4,30.06,ESE,113,2.4,2.4,82,0.00,,,0.00,WUHU216HW,2013-02-26 08:10:00,
2013-02-26 09:15:00,49.2,43.6,30.07,SSE,158,0.0,2.4,81,0.00,,,0.00,WUHU216HW,2013-02-26 08:15:00,
2013-02-26 09:20:00,49.2,43.6,30.06,SSE,158,0.0,1.3,81,0.00,,,0.00,WUHU216HW,2013-02-26 08:20:00,
2013-02-26 09:25:00,49.6,44.0,30.07,ESE,113,0.0,2.2,81,0.00,,,0.00,WUHU216HW,2013-02-26 08:25:00,
2013-02-26 09:30:00,49.8,43.8,30.07,ESE,113,0.0,2.2,80,0.00,,,0.00,WUHU216HW,2013-02-26 08:30:00,
2013-02-26 09:35:00,50.1,44.2,30.07,ESE,113,4.4,4.4,80,0.00,,,0.00,WUHU216HW,2013-02-26 08:35:00,
2013-02-26 09:40:00,50.5,44.2,30.07,ESE,113,4.0,6.7,79,0.00,,,0.00,WUHU216HW,2013-02-26 08:40:00,
2013-02-26 09:45:00,50.7,44.4,30.07,ESE,113,2.4,6.7,79,0.00,,,0.00,WUHU216HW,2013-02-26 08:45:00,
2013-02-26 09:50:00,50.5,43.9,30.07,SE,135,0.0,3.8,78,0.00,,,0.00,WUHU216HW,2013-02-26 08:50:00,
2013-02-26 09:55:00,50.5,43.9,30.07,SE,135,2.0,3.8,78,0.00,,,0.00,WUHU216HW,2013-02-26 08:55:00,
2013-02-26 10:00:00,50.9,44.2,30.07,NE,45,0.0,2.9,78,0.00,,,0.00,WUHU216HW,2013-02-26 09:00:00,
2013-02-26 10:05:00,50.9,43.9,30.07,SSE,158,0.0,2.9,77,0.00,,,0.00,WUHU216HW,2013-02-26 09:05:00,
2013-02-26 10:10:00,51.0,43.9,30.08,ESE,113,0.0,1.5,77,0.00,,,0.00,WUHU216HW,2013-02-26 09:10:00,
2013-02-26 10:15:00,51.6,44.6,30.07,ESE,113,0.6,2.9,77,0.00,,,0.00,WUHU216HW,2013-02-26 09:15:00,
2013-02-26 10:20:00,51.9,44.3,30.07,SSE,158,0.0,3.5,75,0.00,,,0.00,WUHU216HW,2013-02-26 09:20:00,
2013-02-26 10:25:00,52.3,44.6,30.08,SE,135,0.0,3.5,75,0.00,,,0.00,WUHU216HW,2013-02-26 09:25:00,
2013-02-26 10:30:00,52.3,44.3,30.08,East,90,2.9,2.9,74,0.00,,,0.00,WUHU216HW,2013-02-26 09:30:00,
2013-02-26 10:35:00,52.3,44.3,30.08,ESE,113,0.8,2.9,74,0.00,,,0.00,WUHU216HW,2013-02-26 09:35:00,
2013-02-26 10:40:00,52.3,44.3,30.09,NE,45,0.0,4.0,74,0.00,,,0.00,WUHU216HW,2013-02-26 09:40:00,
2013-02-26 10:45:00,52.3,44.6,30.08,North,0,0.0,4.0,75,0.00,,,0.00,WUHU216HW,2013-02-26 09:45:00,
2013-02-26 10:50:00,52.5,44.1,30.09,ENE,68,0.0,4.6,73,0.00,,,0.00,WUHU216HW,2013-02-26 09:50:00,
2013-02-26 10:55:00,52.5,44.1,30.09,East,90,0.8,4.6,73,0.00,,,0.00,WUHU216HW,2013-02-26 09:55:00,
2013-02-26 11:00:00,52.3,44.3,30.09,ESE,113,4.2,4.2,73,0.00,,,0.00,WUHU216HW,2013-02-26 10:00:00,
2013-02-26 11:05:00,52.3,43.9,30.09,SE,135,0.0,4.2,73,0.00,,,0.00,WUHU216HW,2013-02-26 10:05:00,
2013-02-26 11:10:00,52.1,44.1,30.09,East,90,0.0,1.3,74,0.00,,,0.00,WUHU216HW,2013-02-26 10:10:00,
2013-02-26 11:15:00,52.1,44.1,30.09,NNE,23,0.0,2.0,74,0.00,,,0.00,WUHU216HW,2013-02-26 10:15:00,
2013-02-26 11:20:00,52.1,43.6,30.09,East,90,2.4,2.4,73,0.00,,,0.00,WUHU216HW,2013-02-26 10:20:00,
2013-02-26 11:25:00,51.6,43.2,30.09,ESE,113,0.0,2.4,73,0.00,,,0.00,WUHU216HW,2013-02-26 10:25:00,
2013-02-26 11:30:00,51.6,43.6,30.09,ESE,113,0.0,1.5,74,0.00,,,0.00,WUHU216HW,2013-02-26 10:30:00,
2013-02-26 11:35:00,51.6,43.6,30.09,ESE,113,3.5,4.4,74,0.00,,,0.00,WUHU216HW,2013-02-26 10:35:00,
2013-02-26 11:40:00,51.6,43.6,30.09,SE,135,0.0,4.4,74,0.00,,,0.00,WUHU216HW,2013-02-26 10:40:00,
2013-02-26 11:45:00,51.6,43.6,30.09,South,180,0.0,2.4,74,0.00,,,0.00,WUHU216HW,2013-02-26 10:45:00,
2013-02-26 11:50:00,51.6,43.6,30.09,NNE,23,2.2,7.1,74,0.00,,,0.00,WUHU216HW,2013-02-26 10:50:00,
2013-02-26 11:55:00,51.9,43.9,30.08,ESE,113,2.2,7.1,74,0.00,,,0.00,WUHU216HW,2013-02-26 10:55:00,
2013-02-26 12:00:00,52.3,43.9,30.08,East,90,0.0,5.5,73,0.00,,,0.00,WUHU216HW,2013-02-26 11:00:00,
2013-02-26 12:05:00,52.8,44.4,30.09,SSE,158,3.3,5.5,73,0.00,,,0.00,WUHU216HW,2013-02-26 11:05:00,
2013-02-26 12:10:00,53.2,44.7,30.09,East,90,0.0,4.6,73,0.00,,,0.00,WUHU216HW,2013-02-26 11:10:00,
2013-02-26 12:15:00,53.4,44.6,30.08,North,0,0.0,3.5,72,0.00,,,0.00,WUHU216HW,2013-02-26 11:15:00,
2013-02-26 12:20:00,53.4,44.6,30.09,East,90,0.0,2.0,72,0.00,,,0.00,WUHU216HW,2013-02-26 11:20:00,
2013-02-26 12:25:00,53.4,44.6,30.08,SE,135,3.3,4.6,72,0.00,,,0.00,WUHU216HW,2013-02-26 11:25:00,
2013-02-26 12:30:00,53.9,44.7,30.08,SSE,158,4.0,4.6,71,0.00,,,0.00,WUHU216HW,2013-02-26 11:30:00,
2013-02-26 12:35:00,53.9,44.7,30.08,SSE,158,4.0,4.0,71,0.00,,,0.00,WUHU216HW,2013-02-26 11:35:00,
2013-02-26 12:40:00,53.7,44.5,30.08,East,90,0.0,4.0,71,0.00,,,0.00,WUHU216HW,2013-02-26 11:40:00,
2013-02-26 12:45:00,53.7,44.5,30.07,ENE,68,0.0,4.4,71,0.00,,,0.00,WUHU216HW,2013-02-26 11:45:00,
2013-02-26 12:50:00,54.3,45.1,30.08,SE,135,2.0,4.4,71,0.00,,,0.00,WUHU216HW,2013-02-26 11:50:00,
2013-02-26 12:55:00,54.1,44.6,30.07,ENE,68,0.0,3.5,70,0.00,,,0.00,WUHU216HW,2013-02-26 11:55:00,
2013-02-26 13:00:00,54.3,44.6,30.08,ESE,113,2.9,4.4,70,0.00,,,0.00,WUHU216HW,2013-02-26 12:00:00,
2013-02-26 13:05:00,55.0,45.5,30.08,East,90,0.0,4.4,70,0.00,,,0.00,WUHU216HW,2013-02-26 12:05:00,
2013-02-26 13:10:00,55.2,45.2,30.08,SE,135,4.0,4.0,69,0.00,,,0.00,WUHU216HW,2013-02-26 12:10:00,
2013-02-26 13:15:00,55.9,45.9,30.08,NNE,23,0.0,4.0,69,0.00,,,0.00,WUHU216HW,2013-02-26 12:15:00,
2013-02-26 13:20:00,55.2,44.8,30.08,ESE,113,0.0,4.4,68,0.00,,,0.00,WUHU216HW,2013-02-26 12:20:00,
2013-02-26 13:25:00,55.2,45.2,30.08,ESE,113,0.8,4.4,69,0.00,,,0.00,WUHU216HW,2013-02-26 12:25:00,
2013-02-26 13:30:00,54.3,44.3,30.08,ESE,113,0.0,3.1,69,0.00,,,0.00,WUHU216HW,2013-02-26 12:30:00,
2013-02-26 13:35:00,54.5,44.9,30.08,North,0,0.0,3.1,70,0.00,,,0.00,WUHU216HW,2013-02-26 12:35:00,
2013-02-26 13:40:00,54.5,44.5,30.08,ESE,113,0.0,1.3,69,0.00,,,0.00,WUHU216HW,2013-02-26 12:40:00,
2013-02-26 13:45:00,54.3,44.3,30.09,ESE,113,0.0,4.9,69,0.00,,,0.00,WUHU216HW,2013-02-26 12:45:00,
2013-02-26 13:51:00,54.3,44.3,30.08,SE,135,3.1,5.1,69,0.00,,,0.00,WUHU216HW,2013-02-26 12:51:00,
2013-02-26 13:56:00,54.8,45.3,30.08,East,90,5.1,5.1,70,0.00,,,0.00,WUHU216HW,2013-02-26 12:56:00,
2013-02-26 14:01:00,55.5,45.6,30.08,ESE,113,0.0,5.1,69,0.00,,,0.00,WUHU216HW,2013-02-26 13:01:00,
2013-02-26 14:06:00,56.1,45.2,30.08,ESE,113,3.8,5.1,67,0.00,,,0.00,WUHU216HW,2013-02-26 13:06:00,
2013-02-26 14:11:00,57.3,46.4,30.09,SE,135,0.8,5.1,67,0.00,,,0.00,WUHU216HW,2013-02-26 13:11:00,
2013-02-26 14:16:00,58.2,46.9,30.09,South,180,0.0,4.4,66,0.00,,,0.00,WUHU216HW,2013-02-26 13:16:00,
2013-02-26 14:21:00,57.5,46.2,30.09,SSE,158,1.5,4.4,66,0.00,,,0.00,WUHU216HW,2013-02-26 13:21:00,
2013-02-26 14:26:00,57.3,46.0,30.08,ESE,113,3.8,5.3,66,0.00,,,0.00,WUHU216HW,2013-02-26 13:26:00,
2013-02-26 14:31:00,57.3,46.0,30.08,ESE,113,2.6,5.3,66,0.00,,,0.00,WUHU216HW,2013-02-26 13:31:00,
2013-02-26 14:36:00,57.0,45.3,30.08,NNE,23,0.0,4.0,65,0.00,,,0.00,WUHU216HW,2013-02-26 13:36:00,
2013-02-26 14:41:00,56.4,45.2,30.08,ESE,113,0.0,4.0,66,0.00,,,0.00,WUHU216HW,2013-02-26 13:41:00,
2013-02-26 14:46:00,57.0,46.1,30.08,ESE,113,2.0,4.0,67,0.00,,,0.00,WUHU216HW,2013-02-26 13:46:00,
2013-02-26 14:51:00,56.4,45.6,30.08,ESE,113,0.0,4.0,67,0.00,,,0.00,WUHU216HW,2013-02-26 13:51:00,
2013-02-26 14:56:00,55.9,45.1,30.08,ESE,113,0.0,3.3,67,0.00,,,0.00,WUHU216HW,2013-02-26 13:56:00,
2013-02-26 15:01:00,55.2,44.8,30.08,SSE,158,0.0,7.3,68,0.00,,,0.00,WUHU216HW,2013-02-26 14:01:00,
2013-02-26 15:06:00,54.8,44.9,30.07,East,90,0.0,7.3,69,0.00,,,0.00,WUHU216HW,2013-02-26 14:06:00,
2013-02-26 15:11:00,54.5,44.5,30.07,East,90,0.0,0.6,69,0.00,,,0.00,WUHU216HW,2013-02-26 14:11:00,
2013-02-26 15:16:00,54.5,44.9,30.07,ENE,68,0.0,1.3,70,0.00,,,0.00,WUHU216HW,2013-02-26 14:16:00,
2013-02-26 15:21:00,54.6,45.1,30.07,East,90,0.0,2.4,70,0.00,,,0.00,WUHU216HW,2013-02-26 14:21:00,
2013-02-26 15:26:00,54.6,45.1,30.07,ESE,113,0.0,2.4,70,0.00,,,0.00,WUHU216HW,2013-02-26 14:26:00,
2013-02-26 15:31:00,54.6,45.1,30.07,NNW,338,0.6,0.6,70,0.00,,,0.00,WUHU216HW,2013-02-26 14:31:00,
2013-02-26 15:36:00,54.6,45.1,30.07,North,0,0.0,0.6,70,0.00,,,0.00,WUHU216HW,2013-02-26 14:36:00,
2013-02-26 15:41:00,54.5,44.9,30.07,North,0,0.0,0.0,70,0.00,,,0.00,WUHU216HW,2013-02-26 14:41:00,
2013-02-26 15:46:00,54.3,44.7,30.06,NE,45,0.0,2.4,70,0.00,,,0.00,WUHU216HW,2013-02-26 14:46:00,
2013-02-26 15:51:00,54.3,44.7,30.07,ENE,68,0.0,2.4,70,0.00,,,0.00,WUHU216HW,2013-02-26 14:51:00,
2013-02-26 15:56:00,54.1,44.6,30.07,NNW,338,0.0,0.8,70,0.00,,,0.00,WUHU216HW,2013-02-26 14:56:00,
2013-02-26 16:01:00,54.1,44.9,30.07,NNE,23,0.0,0.8,71,0.00,,,0.00,WUHU216HW,2013-02-26 15:01:00,
2013-02-26 16:06:00,54.1,44.9,30.07,NNW,338,0.0,1.3,71,0.00,,,0.00,WUHU216HW,2013-02-26 15:06:00,
2013-02-26 16:11:00,54.1,44.9,30.07,North,0,0.0,1.3,71,0.00,,,0.00,WUHU216HW,2013-02-26 15:11:00,
2013-02-26 16:16:00,53.9,44.7,30.07,North,0,0.0,7.3,71,0.00,,,0.00,WUHU216HW,2013-02-26 15:16:00,
2013-02-26 16:21:00,53.9,44.7,30.07,NNE,23,0.0,7.3,71,0.00,,,0.00,WUHU216HW,2013-02-26 15:21:00,
2013-02-26 16:26:00,53.7,44.5,30.06,SW,225,0.0,0.0,71,0.00,,,0.00,WUHU216HW,2013-02-26 15:26:00,
2013-02-26 16:31:00,53.7,44.5,30.06,East,90,0.0,0.0,71,0.00,,,0.00,WUHU216HW,2013-02-26 15:31:00,
2013-02-26 16:36:00,53.4,44.6,30.06,ENE,68,0.0,0.0,72,0.00,,,0.00,WUHU216HW,2013-02-26 15:36:00,
2013-02-26 16:41:00,53.4,44.7,30.07,NE,45,0.0,0.0,73,0.00,,,0.00,WUHU216HW,2013-02-26 15:41:00,
2013-02-26 16:46:00,53.2,44.7,30.06,NNW,338,0.0,0.0,73,0.00,,,0.00,WUHU216HW,2013-02-26 15:46:00,
2013-02-26 16:51:00,52.8,44.4,30.06,West,270,0.0,0.0,73,0.00,,,0.00,WUHU216HW,2013-02-26 15:51:00,
2013-02-26 16:56:00,52.5,44.3,30.06,WNW,293,0.0,0.0,74,0.00,,,0.00,WUHU216HW,2013-02-26 15:56:00,
2013-02-26 17:01:00,52.1,44.4,30.06,West,270,0.0,0.0,75,0.00,,,0.00,WUHU216HW,2013-02-26 16:01:00,
2013-02-26 17:06:00,51.6,43.9,30.06,WNW,293,0.0,0.0,75,0.00,,,0.00,WUHU216HW,2013-02-26 16:06:00,
2013-02-26 17:11:00,51.4,44.1,30.06,NW,315,0.0,0.0,76,0.00,,,0.00,WUHU216HW,2013-02-26 16:11:00,
2013-02-26 17:16:00,51.4,44.1,30.06,West,270,0.0,0.0,76,0.00,,,0.00,WUHU216HW,2013-02-26 16:16:00,
2013-02-26 17:21:00,51.2,44.2,30.06,WNW,293,0.0,0.0,77,0.00,,,0.00,WUHU216HW,2013-02-26 16:21:00,
2013-02-26 17:26:00,50.9,43.9,30.06,WNW,293,0.0,0.0,77,0.00,,,0.00,WUHU216HW,2013-02-26 16:26:00,
2013-02-26 17:31:00,50.5,43.5,30.06,WNW,293,0.0,0.0,77,0.00,,,0.00,WUHU216HW,2013-02-26 16:31:00,
2013-02-26 17:36:00,50.1,43.5,30.07,NW,315,0.0,0.0,78,0.00,,,0.00,WUHU216HW,2013-02-26 16:36:00,
2013-02-26 17:41:00,50.0,43.3,30.08,NW,315,0.0,0.0,78,0.00,,,0.00,WUHU216HW,2013-02-26 16:41:00,
2013-02-26 17:46:00,49.8,43.1,30.09,WNW,293,0.0,0.0,78,0.00,,,0.00,WUHU216HW,2013-02-26 16:46:00,
2013-02-26 17:51:00,49.8,43.1,30.09,WNW,293,0.0,0.0,78,0.00,,,0.00,WUHU216HW,2013-02-26 16:51:00,
2013-02-26 17:56:00,49.8,43.5,30.10,WNW,293,0.0,0.0,79,0.00,,,0.00,WUHU216HW,2013-02-26 16:56:00,
2013-02-26 18:01:00,49.6,43.3,30.10,SSE,158,0.0,0.0,79,0.00,,,0.00,WUHU216HW,2013-02-26 17:01:00,
2013-02-26 18:06:00,49.8,43.8,30.11,SE,135,0.0,0.0,80,0.00,,,0.00,WUHU216HW,2013-02-26 17:06:00,
2013-02-26 18:11:00,49.8,43.8,30.11,East,90,0.0,1.1,80,0.00,,,0.00,WUHU216HW,2013-02-26 17:11:00,
2013-02-26 18:17:00,49.8,43.8,30.11,ESE,113,0.0,1.1,80,0.00,,,0.00,WUHU216HW,2013-02-26 17:17:00,
2013-02-26 18:22:00,49.6,43.7,30.12,North,0,0.0,0.0,80,0.00,,,0.00,WUHU216HW,2013-02-26 17:22:00,
2013-02-26 18:27:00,49.2,43.3,30.12,North,0,0.0,0.0,80,0.00,,,0.00,WUHU216HW,2013-02-26 17:27:00,
2013-02-26 18:32:00,49.1,43.4,30.12,West,270,1.3,1.3,81,0.00,,,0.00,WUHU216HW,2013-02-26 17:32:00,
2013-02-26 18:37:00,48.9,43.2,30.12,NW,315,0.8,3.5,81,0.00,,,0.00,WUHU216HW,2013-02-26 17:37:00,
2013-02-26 18:42:00,48.9,43.2,30.12,NNW,338,0.0,3.5,81,0.00,,,0.00,WUHU216HW,2013-02-26 17:42:00,
2013-02-26 18:47:00,48.3,42.5,30.12,NW,315,0.0,0.0,81,0.00,,,0.00,WUHU216HW,2013-02-26 17:47:00,
2013-02-26 18:52:00,48.0,42.4,30.12,NNW,338,0.0,0.0,81,0.00,,,0.00,WUHU216HW,2013-02-26 17:52:00,
2013-02-26 18:57:00,47.4,42.2,30.12,NW,315,0.0,0.0,82,0.00,,,0.00,WUHU216HW,2013-02-26 17:57:00,
2013-02-26 19:02:00,47.1,42.2,30.12,NNW,338,0.0,0.0,83,0.00,,,0.00,WUHU216HW,2013-02-26 18:02:00,
2013-02-26 19:07:00,46.7,41.8,30.12,NNW,338,0.0,0.0,83,0.00,,,0.00,WUHU216HW,2013-02-26 18:07:00,
2013-02-26 19:12:00,46.5,41.7,30.12,NNW,338,0.0,0.0,83,0.00,,,0.00,WUHU216HW,2013-02-26 18:12:00,
2013-02-26 19:17:00,46.2,41.3,30.13,SSW,203,0.0,0.0,83,0.00,,,0.00,WUHU216HW,2013-02-26 18:17:00,
2013-02-26 19:22:00,46.2,41.3,30.13,SW,225,0.0,0.0,83,0.00,,,0.00,WUHU216HW,2013-02-26 18:22:00,
2013-02-26 19:27:00,45.8,41.3,30.14,SW,225,0.0,0.0,84,0.00,,,0.00,WUHU216HW,2013-02-26 18:27:00,
2013-02-26 19:32:00,45.6,41.1,30.14,SW,225,0.0,0.0,84,0.00,,,0.00,WUHU216HW,2013-02-26 18:32:00,
2013-02-26 19:37:00,45.6,41.1,30.14,SW,225,0.0,0.0,84,0.00,,,0.00,WUHU216HW,2013-02-26 18:37:00,
2013-02-26 19:42:00,45.6,41.4,30.14,WSW,248,0.0,0.0,85,0.00,,,0.00,WUHU216HW,2013-02-26 18:42:00,
2013-02-26 19:47:00,45.6,41.4,30.13,NW,315,0.0,0.0,85,0.00,,,0.00,WUHU216HW,2013-02-26 18:47:00,
2013-02-26 19:52:00,45.6,41.4,30.14,NE,45,0.0,0.0,85,0.00,,,0.00,WUHU216HW,2013-02-26 18:52:00,
2013-02-26 19:57:00,45.6,41.4,30.14,NNW,338,0.0,0.0,85,0.00,,,0.00,WUHU216HW,2013-02-26 18:57:00,
2013-02-26 20:02:00,46.0,42.1,30.14,NW,315,0.0,0.0,86,0.00,,,0.00,WUHU216HW,2013-02-26 19:02:00,
2013-02-26 20:07:00,46.0,42.1,30.14,WNW,293,0.0,0.0,86,0.00,,,0.00,WUHU216HW,2013-02-26 19:07:00,
2013-02-26 20:12:00,45.6,41.7,30.13,NNW,338,0.0,0.0,86,0.00,,,0.00,WUHU216HW,2013-02-26 19:12:00,
2013-02-26 20:17:00,45.3,41.0,30.13,NW,315,0.0,0.0,85,0.00,,,0.00,WUHU216HW,2013-02-26 19:17:00,
2013-02-26 20:22:00,45.1,41.3,30.14,NNW,338,0.0,0.0,86,0.00,,,0.00,WUHU216HW,2013-02-26 19:22:00,
2013-02-26 20:27:00,45.1,41.2,30.14,NW,315,0.0,0.0,86,0.00,,,0.00,WUHU216HW,2013-02-26 19:27:00,
2013-02-26 20:32:00,45.1,41.2,30.14,NNW,338,0.0,0.0,86,0.00,,,0.00,WUHU216HW,2013-02-26 19:32:00,
2013-02-26 20:37:00,45.6,41.5,30.14,NW,315,0.0,0.0,86,0.00,,,0.00,WUHU216HW,2013-02-26 19:37:00,
2013-02-26 20:42:00,45.5,41.5,30.14,NW,315,0.0,0.0,86,0.00,,,0.00,WUHU216HW,2013-02-26 19:42:00,